Time;durP1;ratioP1;P1;durP2;ratioP2;P2;SDS_P1;SDS_P2;PMS_P1;PMS_P2;Temp;Humidity;BMP_temperature;BMP_pressure;BME280_temperature;BME280_humidity;BME280_pressure;Samples;Min_cycle;Max_cycle;Signal;HPM_P1;HPM_P2
2022/08/24 00:00:33;;;;;;;17.67;15.93;;;;;;;20.51;77.85;101616.34;5012235;28;20031;-81
2022/08/24 00:02:58;;;;;;;16.50;14.77;;;;;;;20.48;77.67;101618.53;5031043;28;20280;-81
2022/08/24 00:05:23;;;;;;;19.30;15.63;;;;;;;20.47;78.14;101609.59;5015445;28;20041;-81
2022/08/24 00:07:49;;;;;;;18.83;15.97;;;;;;;20.45;78.41;101611.63;5018287;28;20385;-81
2022/08/24 00:10:19;;;;;;;17.90;15.50;;;;;;;20.42;78.56;101613.81;5022512;28;20285;-82
2022/08/24 00:12:49;;;;;;;18.90;16.17;;;;;;;20.38;79.03;101618.66;5013444;28;20054;-82
2022/08/24 00:15:15;;;;;;;17.20;15.40;;;;;;;20.41;78.49;101623.75;5015253;28;20022;-82
2022/08/24 00:17:41;;;;;;;18.95;16.90;;;;;;;20.37;78.71;101624.22;5033029;28;20079;-82
2022/08/24 00:20:10;;;;;;;19.23;16.05;;;;;;;20.32;78.47;101624.75;5011745;28;20117;-82
2022/08/24 00:22:36;;;;;;;19.63;15.73;;;;;;;20.30;78.24;101629.44;5025131;28;20037;-82
2022/08/24 00:25:03;;;;;;;18.17;14.85;;;;;;;20.29;78.34;101630.44;5020055;28;20101;-81
2022/08/24 00:27:29;;;;;;;17.80;15.98;;;;;;;20.29;78.16;101633.16;5025654;28;20022;-82
2022/08/24 00:29:55;;;;;;;19.42;17.30;;;;;;;20.21;79.37;101633.94;5021467;28;20083;-81
2022/08/24 00:32:20;;;;;;;18.17;16.23;;;;;;;20.21;79.45;101638.50;5033300;28;20052;-81
2022/08/24 00:34:45;;;;;;;18.87;16.87;;;;;;;20.19;79.15;101630.56;5027854;28;20033;-82
2022/08/24 00:37:11;;;;;;;20.00;17.42;;;;;;;20.15;79.16;101639.97;5033425;28;20333;-81
2022/08/24 00:39:36;;;;;;;20.23;16.83;;;;;;;20.12;79.22;101641.16;5033766;28;20052;-81
2022/08/24 00:42:01;;;;;;;19.10;16.90;;;;;;;20.13;79.12;101634.78;5028462;28;20088;-81
2022/08/24 00:44:27;;;;;;;19.15;17.23;;;;;;;20.10;79.17;101643.19;5021004;28;20026;-81
2022/08/24 00:47:00;;;;;;;22.00;17.58;;;;;;;20.06;79.66;101641.78;5028816;28;20483;-81
2022/08/24 00:49:38;;;;;;;19.38;17.13;;;;;;;20.04;79.30;101643.81;5018699;28;20034;-81
2022/08/24 00:52:09;;;;;;;19.98;18.00;;;;;;;19.96;80.69;101641.06;5097941;22;20427;-77
2022/08/24 00:54:39;;;;;;;20.27;18.20;;;;;;;19.94;79.97;101635.84;5053940;28;20033;-77
2022/08/24 00:57:09;;;;;;;20.73;18.25;;;;;;;19.95;79.88;101640.25;5054276;28;20036;-77
2022/08/24 00:59:43;;;;;;;21.50;19.35;;;;;;;19.89;79.95;101634.63;5054132;28;20383;-78
2022/08/24 01:02:15;;;;;;;21.95;19.63;;;;;;;19.88;80.48;101641.84;5053258;28;20033;-77
2022/08/24 01:04:48;;;;;;;20.35;18.15;;;;;;;19.84;80.49;101647.75;5054216;28;20435;-77
2022/08/24 01:07:14;;;;;;;21.30;19.08;;;;;;;19.79;80.19;101645.53;5054464;28;20037;-75
2022/08/24 01:09:39;;;;;;;21.13;18.90;;;;;;;19.80;80.68;101643.66;5051947;28;20028;-77
2022/08/24 01:12:05;;;;;;;21.88;19.77;;;;;;;19.78;81.15;101642.00;5054267;28;20025;-76
2022/08/24 01:14:31;;;;;;;23.52;21.08;;;;;;;19.75;81.39;101638.75;5052335;28;20480;-76
2022/08/24 01:19:50;;;;;;;23.08;20.38;;;;;;;19.73;80.92;101644.28;5053448;28;20502;-77
2022/08/24 01:22:33;;;;;;;23.50;21.13;;;;;;;19.69;82.06;101636.66;5044813;28;20502;-76
2022/08/24 01:24:59;;;;;;;22.85;20.48;;;;;;;19.69;81.64;101639.38;5053530;28;20028;-76
2022/08/24 01:27:25;;;;;;;23.40;21.02;;;;;;;19.60;81.98;101642.00;5053916;28;20095;-76
2022/08/24 01:29:52;;;;;;;23.83;21.38;;;;;;;19.57;81.89;101642.31;5057259;28;20467;-76
2022/08/24 01:32:21;;;;;;;21.60;19.50;;;;;;;19.54;82.35;101647.19;5056971;28;20029;-76
2022/08/24 01:34:47;;;;;;;22.30;20.00;;;;;;;19.56;81.80;101639.78;5055653;28;20032;-76
2022/08/24 01:37:12;;;;;;;23.02;20.63;;;;;;;19.54;81.78;101641.78;5056075;28;20032;-76
2022/08/24 01:39:43;;;;;;;24.10;21.60;;;;;;;19.54;81.62;101636.41;5057046;28;20053;-76
2022/08/24 01:42:09;;;;;;;26.33;22.88;;;;;;;19.50;82.16;101635.00;5052608;28;20029;-77
2022/08/24 01:44:37;;;;;;;25.15;22.58;;;;;;;19.38;83.40;101611.03;5056272;28;20036;-77
2022/08/24 01:47:05;;;;;;;26.73;23.95;;;;;;;19.46;83.53;101623.69;5057444;28;20044;-77
2022/08/24 01:49:36;;;;;;;25.20;22.70;;;;;;;19.47;83.29;101621.84;5056216;28;20025;-77
2022/08/24 01:52:05;;;;;;;25.92;23.20;;;;;;;19.42;83.21;101627.72;5047435;28;20288;-77
2022/08/24 01:54:30;;;;;;;24.25;21.75;;;;;;;19.45;83.06;101629.25;5036350;28;20434;-77
2022/08/24 01:56:55;;;;;;;25.30;22.63;;;;;;;19.41;83.28;101629.56;5035320;28;20033;-77
2022/08/24 01:59:21;;;;;;;25.35;22.77;;;;;;;19.41;83.49;101632.25;5037022;28;20279;-77
2022/08/24 02:01:51;;;;;;;26.30;23.80;;;;;;;19.37;83.23;101628.19;5036632;28;20365;-77
2022/08/24 02:04:16;;;;;;;25.25;22.65;;;;;;;19.36;83.12;101617.56;5036604;28;20109;-77
2022/08/24 02:06:43;;;;;;;24.33;21.95;;;;;;;19.35;83.24;101634.72;5036861;28;20103;-77
2022/08/24 02:09:09;;;;;;;24.92;22.38;;;;;;;19.34;83.55;101636.56;5036974;28;20476;-77
2022/08/24 02:11:36;;;;;;;25.33;22.80;;;;;;;19.29;83.34;101633.50;5034848;28;20155;-77
2022/08/24 02:14:02;;;;;;;24.38;21.98;;;;;;;19.29;83.92;101632.66;5036328;28;20048;-77
2022/08/24 02:16:27;;;;;;;25.33;22.90;;;;;;;19.21;83.95;101630.75;5036701;28;20532;-77
2022/08/24 02:18:52;;;;;;;26.83;24.13;;;;;;;19.21;83.48;101636.97;5035908;28;20444;-77
2022/08/24 02:21:18;;;;;;;24.77;22.38;;;;;;;19.21;83.33;101636.97;5036415;28;20052;-77
2022/08/24 02:23:43;;;;;;;27.30;24.50;;;;;;;19.17;84.13;101634.75;5033269;28;20022;-76
2022/08/24 02:26:10;;;;;;;25.17;22.60;;;;;;;19.19;83.24;101635.44;5036045;28;20053;-77
2022/08/24 02:28:36;;;;;;;24.52;22.08;;;;;;;19.19;83.52;101638.13;5037220;28;20029;-77
2022/08/24 02:31:04;;;;;;;26.20;23.60;;;;;;;19.16;83.81;101649.22;5037309;28;20029;-77
2022/08/24 02:33:30;;;;;;;26.37;23.67;;;;;;;19.12;82.97;101653.19;5037260;28;20484;-77
2022/08/24 02:35:55;;;;;;;25.83;23.20;;;;;;;19.10;83.64;101656.06;5035562;28;20029;-77
2022/08/24 02:38:21;;;;;;;26.08;23.45;;;;;;;19.06;83.92;101643.91;5029869;28;20021;-77
2022/08/24 02:40:46;;;;;;;26.15;23.60;;;;;;;19.06;83.70;101651.13;5024557;28;20030;-77
2022/08/24 02:43:12;;;;;;;25.10;22.58;;;;;;;19.09;83.88;101651.69;5036195;28;20029;-77
2022/08/24 02:45:39;;;;;;;24.85;22.40;;;;;;;19.06;83.61;101656.53;5023630;28;20147;-76
2022/08/24 02:48:04;;;;;;;26.00;23.35;;;;;;;19.07;83.91;101647.44;5036195;28;20495;-76
2022/08/24 02:50:30;;;;;;;27.17;24.58;;;;;;;19.01;84.17;101652.44;5036064;28;20021;-76
2022/08/24 02:52:55;;;;;;;24.30;21.90;;;;;;;19.01;83.89;101647.03;5035623;28;20073;-77
2022/08/24 02:55:20;;;;;;;25.88;23.35;;;;;;;18.96;84.04;101651.22;5036021;28;20038;-77
2022/08/24 02:57:46;;;;;;;25.00;22.45;;;;;;;18.97;83.30;101656.44;5035609;28;20025;-77
2022/08/24 03:00:14;;;;;;;25.08;22.65;;;;;;;18.88;83.95;101651.13;5036348;28;20021;-77
2022/08/24 03:02:39;;;;;;;25.33;22.88;;;;;;;18.89;83.69;101655.53;5035922;28;20549;-77
2022/08/24 03:05:06;;;;;;;24.70;22.25;;;;;;;18.84;82.54;101653.28;5035368;28;20026;-77
2022/08/24 03:07:31;;;;;;;24.58;22.02;;;;;;;18.79;83.57;101644.78;5036229;28;20377;-77
2022/08/24 03:09:56;;;;;;;25.73;23.13;;;;;;;18.77;83.99;101646.75;5034321;28;20108;-77
2022/08/24 03:12:22;;;;;;;25.48;23.08;;;;;;;18.75;84.29;101646.94;5035596;28;20025;-77
2022/08/24 03:14:47;;;;;;;25.77;23.05;;;;;;;18.73;84.29;101645.38;5026256;28;20385;-77
2022/08/24 03:17:12;;;;;;;25.93;23.23;;;;;;;18.73;83.35;101643.53;5035533;28;20442;-77
2022/08/24 03:19:38;;;;;;;24.35;22.00;;;;;;;18.72;83.87;101639.16;5022759;28;20340;-78
2022/08/24 03:22:04;;;;;;;23.70;21.33;;;;;;;18.67;83.93;101642.31;5028209;28;20480;-77
2022/08/24 03:24:30;;;;;;;25.73;21.95;;;;;;;18.65;84.07;101644.31;5035794;28;20025;-77
2022/08/24 03:26:55;;;;;;;22.63;20.30;;;;;;;18.66;83.64;101640.59;5029234;28;20036;-77
2022/08/24 03:29:20;;;;;;;22.48;20.27;;;;;;;18.62;83.53;101644.59;5034953;28;20024;-76
2022/08/24 03:31:46;;;;;;;23.52;21.05;;;;;;;18.59;84.07;101644.91;5035130;28;20163;-76
2022/08/24 03:34:12;;;;;;;23.67;21.17;;;;;;;18.54;83.63;101639.13;5035290;28;20025;-77
2022/08/24 03:36:39;;;;;;;24.13;21.73;;;;;;;18.54;84.41;101639.13;5035293;28;20021;-77
2022/08/24 03:39:04;;;;;;;23.17;20.90;;;;;;;18.52;84.14;101640.25;5034633;28;20388;-77
2022/08/24 03:41:29;;;;;;;23.17;20.77;;;;;;;18.48;84.39;101631.66;5023626;28;20029;-77
2022/08/24 03:43:55;;;;;;;23.50;21.13;;;;;;;18.46;84.33;101639.88;5033531;28;20055;-77
2022/08/24 03:46:26;;;;;;;22.85;20.55;;;;;;;18.44;84.05;101635.66;5035213;28;20376;-77
2022/08/24 03:48:53;;;;;;;21.50;19.40;;;;;;;18.43;84.63;101639.31;5029566;28;20021;-77
2022/08/24 03:51:22;;;;;;;21.58;19.48;;;;;;;18.44;84.75;101638.34;5034456;28;20095;-77
2022/08/24 03:53:48;;;;;;;22.67;20.48;;;;;;;18.44;84.97;101639.19;5035310;28;20068;-78
2022/08/24 03:56:14;;;;;;;22.35;20.08;;;;;;;18.43;84.94;101639.31;5035482;28;20498;-78
2022/08/24 03:58:43;;;;;;;21.88;19.75;;;;;;;18.44;84.28;101651.78;5034916;28;20021;-78
2022/08/24 04:01:09;;;;;;;23.20;20.98;;;;;;;18.41;84.05;101647.53;5035263;28;20104;-78
2022/08/24 04:03:40;;;;;;;23.10;20.80;;;;;;;18.38;84.59;101647.00;5035198;28;20033;-78
2022/08/24 04:06:08;;;;;;;22.17;19.98;;;;;;;18.35;84.13;101637.38;5035107;28;20049;-78
2022/08/24 04:08:34;;;;;;;24.67;21.17;;;;;;;18.34;84.46;101651.00;5028775;28;20030;-78
2022/08/24 04:11:00;;;;;;;22.73;20.50;;;;;;;18.33;83.97;101655.50;5026070;28;20060;-78
2022/08/24 04:13:26;;;;;;;22.58;20.30;;;;;;;18.28;84.08;101652.41;5023189;28;20037;-78
2022/08/24 04:15:51;;;;;;;24.08;21.52;;;;;;;18.27;84.18;101651.56;5034823;28;20029;-78
2022/08/24 04:18:18;;;;;;;22.20;19.95;;;;;;;18.20;83.94;101646.94;5034900;28;20119;-78
2022/08/24 04:20:43;;;;;;;23.02;20.65;;;;;;;18.14;84.46;101647.53;5032139;28;20136;-78
2022/08/24 04:23:10;;;;;;;21.85;19.73;;;;;;;18.15;83.52;101650.06;5022664;28;20118;-77
2022/08/24 04:25:41;;;;;;;23.80;21.50;;;;;;;18.14;84.38;101655.59;5034735;28;20025;-77
2022/08/24 04:28:06;;;;;;;24.00;21.67;;;;;;;18.10;84.46;101655.03;5019874;28;20397;-77
2022/08/24 04:30:32;;;;;;;23.25;20.85;;;;;;;18.07;85.11;101652.66;5030065;28;20030;-78
2022/08/24 04:32:58;;;;;;;22.33;20.02;;;;;;;18.08;85.00;101657.03;5035832;28;20047;-77
2022/08/24 04:35:23;;;;;;;22.75;20.45;;;;;;;18.01;84.96;101655.94;5037015;28;20025;-78
2022/08/24 04:37:48;;;;;;;23.20;20.77;;;;;;;18.02;85.12;101652.22;5039746;28;20021;-77
2022/08/24 04:40:14;;;;;;;22.48;19.23;;;;;;;18.03;84.58;101651.25;5034351;28;20037;-77
2022/08/24 04:42:39;;;;;;;22.20;19.58;;;;;;;18.01;84.98;101662.13;5036470;28;20033;-77
2022/08/24 04:45:05;;;;;;;21.53;19.13;;;;;;;17.97;85.31;101657.19;5022988;28;20042;-77
2022/08/24 04:47:30;;;;;;;19.98;17.98;;;;;;;17.98;84.71;101662.44;5035481;28;20339;-76
2022/08/24 04:49:55;;;;;;;20.77;18.47;;;;;;;17.92;85.56;101657.66;5030770;28;20065;-78
2022/08/24 04:52:21;;;;;;;20.23;17.83;;;;;;;17.88;85.14;101650.88;5035261;28;20292;-77
2022/08/24 04:54:46;;;;;;;19.13;17.15;;;;;;;17.92;84.30;101660.34;5022710;28;20424;-77
2022/08/24 04:57:11;;;;;;;20.38;18.27;;;;;;;17.86;84.65;101661.72;5016615;28;20026;-76
2022/08/24 04:59:36;;;;;;;21.88;18.52;;;;;;;17.84;85.55;101671.78;5029148;28;20032;-77
2022/08/24 05:02:02;;;;;;;23.40;18.27;;;;;;;17.90;85.35;101673.06;5035421;28;20026;-77
2022/08/24 05:04:27;;;;;;;20.23;17.92;;;;;;;17.90;85.21;101665.88;5039120;28;20303;-77
2022/08/24 05:06:52;;;;;;;19.48;17.58;;;;;;;17.92;85.71;101677.31;5039180;28;20025;-77
2022/08/24 05:09:18;;;;;;;20.50;18.33;;;;;;;17.91;85.89;101664.00;5038124;28;20116;-77
2022/08/24 05:11:43;;;;;;;22.00;17.63;;;;;;;17.93;85.64;101665.53;5038711;28;20762;-77
2022/08/24 05:14:09;;;;;;;20.65;18.40;;;;;;;17.93;86.02;101664.72;5038581;28;20351;-77
2022/08/24 05:16:36;;;;;;;19.75;17.38;;;;;;;17.93;86.50;101667.41;5038169;28;20072;-76
2022/08/24 05:19:05;;;;;;;20.60;18.38;;;;;;;17.93;86.50;101667.41;5038470;28;20025;-77
2022/08/24 05:21:31;;;;;;;19.13;17.13;;;;;;;17.92;86.53;101669.25;5032555;28;20104;-77
2022/08/24 05:23:56;;;;;;;20.77;17.38;;;;;;;17.94;87.06;101669.94;5026120;28;20032;-77
2022/08/24 05:26:25;;;;;;;21.13;17.90;;;;;;;17.93;86.93;101678.97;5025682;28;20036;-78
2022/08/24 05:28:54;;;;;;;19.83;17.77;;;;;;;17.98;87.08;101677.72;5038459;28;20411;-77
2022/08/24 05:31:22;;;;;;;20.63;18.02;;;;;;;17.93;87.28;101670.09;5031913;28;20032;-77
2022/08/24 05:33:48;;;;;;;19.40;16.50;;;;;;;18.01;85.88;101680.13;5038168;28;20136;-77
2022/08/24 05:36:17;;;;;;;19.00;17.08;;;;;;;18.04;86.21;101685.22;5035293;28;20033;-76
2022/08/24 05:38:43;;;;;;;19.40;16.75;;;;;;;18.07;87.13;101688.44;5037482;28;20388;-76
2022/08/24 05:41:08;;;;;;;19.58;17.52;;;;;;;18.08;87.35;101689.28;5037958;28;20048;-76
2022/08/24 05:43:34;;;;;;;19.50;17.52;;;;;;;18.12;87.58;101693.41;5036479;28;20079;-78
2022/08/24 05:45:59;;;;;;;20.83;18.45;;;;;;;18.14;88.25;101688.72;5026908;28;20025;-77
2022/08/24 05:48:25;;;;;;;23.33;19.98;;;;;;;18.13;88.36;101681.63;5038281;28;20024;-77
2022/08/24 05:50:53;;;;;;;22.55;20.25;;;;;;;18.20;87.97;101684.56;5037531;28;20392;-77
2022/08/24 05:53:18;;;;;;;23.42;19.65;;;;;;;18.24;88.50;101688.69;5038262;28;20057;-77
2022/08/24 05:55:43;;;;;;;22.73;20.33;;;;;;;18.28;88.89;101684.69;5034296;28;20033;-77
2022/08/24 05:58:09;;;;;;;21.95;19.65;;;;;;;18.31;88.98;101684.41;5042671;28;20064;-77
2022/08/24 06:00:36;;;;;;;25.38;22.25;;;;;;;18.35;89.63;101685.78;5048790;28;20021;-78
2022/08/24 06:03:01;;;;;;;25.83;23.02;;;;;;;18.38;89.42;101687.34;5053923;28;20081;-78
2022/08/24 06:05:27;;;;;;;26.48;23.50;;;;;;;18.45;89.40;101691.13;5052142;28;20037;-77
2022/08/24 06:07:52;;;;;;;26.42;23.63;;;;;;;18.49;90.04;101684.47;5038143;28;20112;-77
2022/08/24 06:10:19;;;;;;;30.80;26.05;;;;;;;18.51;90.23;101687.84;5038961;28;20037;-77
2022/08/24 06:12:45;;;;;;;31.02;26.38;;;;;;;18.58;90.27;101697.00;5039420;28;20026;-77
2022/08/24 06:15:10;;;;;;;31.35;28.10;;;;;;;18.64;90.69;101693.72;5036395;28;20072;-77
2022/08/24 06:17:35;;;;;;;30.27;27.27;;;;;;;18.68;90.62;101710.41;5039865;28;20557;-77
2022/08/24 06:20:01;;;;;;;32.43;29.23;;;;;;;18.75;90.52;101711.53;5040461;28;20544;-77
2022/08/24 06:22:27;;;;;;;31.75;28.15;;;;;;;18.80;90.77;101705.66;5040319;28;20299;-77
2022/08/24 06:27:36;;;;;;;34.42;29.05;;;;;;;18.92;90.84;101706.34;5041097;28;20040;-77
2022/08/24 06:30:05;;;;;;;37.15;33.38;;;;;;;19.03;92.17;101715.06;5036558;28;20057;-76
2022/08/24 06:32:31;;;;;;;37.80;33.90;;;;;;;19.12;92.23;101707.06;5053778;28;20037;-79
2022/08/24 06:34:57;;;;;;;37.20;33.35;;;;;;;19.19;91.96;101708.16;5058023;28;20029;-76
2022/08/24 06:37:26;;;;;;;35.00;31.50;;;;;;;19.23;91.28;101710.41;5057385;28;20041;-79
2022/08/24 06:39:53;;;;;;;38.80;33.35;;;;;;;19.32;91.67;101714.00;5043367;28;20053;-77
2022/08/24 06:42:18;;;;;;;43.35;37.97;;;;;;;19.44;92.01;101711.09;5053164;28;20105;-79
2022/08/24 06:44:44;;;;;;;43.63;38.38;;;;;;;19.50;91.47;101710.44;5053148;28;20065;-77
2022/08/24 06:47:10;;;;;;;43.38;38.70;;;;;;;19.62;91.87;101724.53;5052784;28;20457;-78
2022/08/24 06:49:36;;;;;;;42.22;37.95;;;;;;;19.74;91.67;101716.03;5048705;28;20014;-78
2022/08/24 06:52:05;;;;;;;44.13;38.75;;;;;;;19.83;91.63;101716.97;5050371;28;20049;-78
2022/08/24 06:54:31;;;;;;;;;;;;;;;19.91;88.98;101719.72;5052605;28;20040;-77
2022/08/24 06:56:57;;;;;;;43.65;38.97;;;;;;;20.08;90.66;101711.75;5054045;28;19917;-78
2022/08/24 06:59:25;;;;;;;39.50;34.85;;;;;;;20.26;89.94;101717.09;5049451;28;20076;-78
2022/08/24 07:01:52;;;;;;;39.00;35.03;;;;;;;20.42;89.33;101721.75;5035760;28;20026;-78
2022/08/24 07:04:17;;;;;;;34.15;30.65;;;;;;;20.59;87.86;101722.66;5035817;28;20026;-78
2022/08/24 07:06:43;;;;;;;32.63;29.20;;;;;;;20.83;86.57;101721.94;5037180;28;20033;-77
2022/08/24 07:09:08;;;;;;;28.93;25.07;;;;;;;21.06;84.10;101723.00;5038026;28;20025;-77
2022/08/24 07:11:33;;;;;;;32.30;26.40;;;;;;;21.31;85.58;101730.31;5036806;28;20310;-77
2022/08/24 07:13:59;;;;;;;26.63;23.60;;;;;;;21.56;84.18;101731.22;5036837;28;20679;-77
2022/08/24 07:16:24;;;;;;;30.10;23.15;;;;;;;21.81;80.78;101732.06;5030284;28;20088;-78
2022/08/24 07:18:50;;;;;;;29.27;21.63;;;;;;;22.03;78.81;101737.78;5037821;28;20064;-77
2022/08/24 07:21:18;;;;;;;30.88;22.13;;;;;;;22.32;78.27;101734.53;5036726;28;20108;-77
2022/08/24 07:23:44;;;;;;;32.22;22.13;;;;;;;22.56;76.04;101733.59;5034552;28;20022;-77
2022/08/24 07:26:12;;;;;;;31.50;21.83;;;;;;;22.83;74.95;101731.44;5031730;28;20026;-77
2022/08/24 07:28:38;;;;;;;26.23;20.67;;;;;;;23.04;74.73;101745.22;5035124;28;20022;-77
2022/08/24 07:31:05;;;;;;;27.90;19.50;;;;;;;23.25;72.37;101738.38;5036200;28;20029;-77
2022/08/24 07:33:31;;;;;;;24.08;17.00;;;;;;;23.51;71.70;101742.59;5035806;28;20032;-77
2022/08/24 07:35:56;;;;;;;21.45;15.95;;;;;;;23.76;69.58;101741.34;5036760;28;20026;-78
2022/08/24 07:38:22;;;;;;;25.13;16.58;;;;;;;24.01;68.23;101738.44;5033079;28;20471;-77
2022/08/24 07:40:47;;;;;;;29.58;16.60;;;;;;;24.24;68.28;101734.81;5035042;28;20035;-77
2022/08/24 07:43:13;;;;;;;22.98;14.63;;;;;;;24.64;66.74;101727.25;5037573;28;20033;-77
2022/08/24 07:45:41;;;;;;;22.63;14.60;;;;;;;24.99;65.64;101724.75;5027358;28;20088;-78
2022/08/24 07:48:08;;;;;;;21.27;14.27;;;;;;;25.09;64.17;101738.88;5037531;28;20037;-78
2022/08/24 07:50:33;;;;;;;17.92;13.40;;;;;;;25.40;64.39;101724.19;5035602;28;20035;-78
2022/08/24 07:52:59;;;;;;;17.98;12.50;;;;;;;25.61;61.86;101737.75;5035056;28;20053;-78
2022/08/24 07:55:24;;;;;;;16.73;11.55;;;;;;;25.76;59.94;101729.50;5034892;28;20101;-79
2022/08/24 07:57:50;;;;;;;16.40;11.18;;;;;;;25.93;59.28;101729.19;5035187;28;20029;-78
2022/08/24 08:00:18;;;;;;;18.73;10.95;;;;;;;26.13;59.50;101735.69;5035337;28;20025;-78
2022/08/24 08:02:45;;;;;;;15.00;10.10;;;;;;;26.43;57.34;101738.16;5035378;28;20037;-79
2022/08/24 08:05:14;;;;;;;16.65;10.50;;;;;;;26.66;57.74;101737.03;5033588;28;20029;-78
2022/08/24 08:07:40;;;;;;;14.52;8.43;;;;;;;26.93;54.89;101738.00;5034300;28;20476;-78
2022/08/24 08:10:06;;;;;;;14.05;7.85;;;;;;;26.97;53.21;101735.69;5034094;28;20021;-78
2022/08/24 08:12:33;;;;;;;9.27;7.38;;;;;;;27.21;51.61;101737.84;5034465;28;20516;-78
2022/08/24 08:14:59;;;;;;;11.00;7.97;;;;;;;27.25;53.61;101744.56;5034559;28;20492;-78
2022/08/24 08:17:24;;;;;;;12.00;7.30;;;;;;;27.47;52.46;101741.69;5032902;28;20034;-79
2022/08/24 08:19:49;;;;;;;13.52;6.90;;;;;;;27.62;52.53;101741.50;5033239;28;20049;-80
2022/08/24 08:24:59;;;;;;;13.57;6.55;;;;;;;28.11;50.62;101739.38;5017778;28;20031;-79
2022/08/24 08:27:24;;;;;;;11.15;6.38;;;;;;;28.33;49.26;101749.03;5033060;28;20021;-79
2022/08/24 08:29:50;;;;;;;11.40;5.50;;;;;;;28.48;50.31;101740.56;5033077;28;20018;-79
2022/08/24 08:32:16;;;;;;;10.97;5.20;;;;;;;28.81;48.84;101745.06;5045326;28;20029;-79
2022/08/24 08:34:43;;;;;;;9.52;5.97;;;;;;;28.86;46.67;101737.09;5033315;28;20299;-79
2022/08/24 08:37:08;;;;;;;11.20;5.00;;;;;;;29.18;47.41;101730.81;5035505;28;20033;-79
2022/08/24 08:39:34;;;;;;;7.93;4.75;;;;;;;29.29;45.65;101733.69;5037541;28;20021;-79
2022/08/24 08:42:37;;;;;;;8.02;4.78;;;;;;;29.54;49.20;101721.94;5045976;28;20032;-78
2022/08/24 08:45:03;;;;;;;9.48;4.25;;;;;;;29.69;46.44;101730.66;5036999;28;20034;-79
2022/08/24 08:48:05;;;;;;;8.55;4.25;;;;;;;29.77;47.27;101734.16;5032256;28;20022;-79
2022/08/24 08:51:06;;;;;;;7.53;4.10;;;;;;;29.97;45.86;101737.59;5031708;28;20101;-79
2022/08/24 08:54:24;;;;;;;7.25;4.03;;;;;;;30.13;47.32;101736.16;5041057;28;20041;-79
2022/08/24 08:57:18;;;;;;;10.40;3.58;;;;;;;30.42;46.92;101736.50;5042747;28;20108;-79
2022/08/24 08:59:50;;;;;;;4.43;3.55;;;;;;;30.32;42.06;101744.41;5031898;28;20040;-79
2022/08/24 09:02:44;;;;;;;6.28;3.15;;;;;;;30.55;44.73;101736.34;5028335;28;20022;-80
2022/08/24 09:05:31;;;;;;;7.07;3.08;;;;;;;30.55;44.62;101739.09;5029470;28;20077;-80
2022/08/24 09:08:09;;;;;;;4.32;2.50;;;;;;;30.80;41.59;101736.25;5017667;28;20042;-80
2022/08/24 09:11:01;;;;;;;4.90;2.50;;;;;;;31.14;45.04;101738.56;5036783;28;20067;-78
2022/08/24 09:13:55;;;;;;;6.32;2.08;;;;;;;31.21;42.85;101736.56;5031278;28;20300;-78
2022/08/24 09:16:42;;;;;;;5.15;2.53;;;;;;;31.22;43.37;101735.47;5031880;28;20101;-78
2022/08/24 09:19:43;;;;;;;6.88;3.20;;;;;;;31.33;43.52;101737.41;5028432;28;20099;-79
2022/08/24 09:22:13;;;;;;;4.93;2.60;;;;;;;31.46;41.38;101735.53;5023509;28;20046;-79
2022/08/24 09:24:53;;;;;;;5.20;2.85;;;;;;;31.56;42.19;101737.72;5036311;28;20026;-79
2022/08/24 09:28:09;;;;;;;5.00;2.45;;;;;;;31.70;41.40;101737.25;5036974;28;20029;-77
2022/08/24 09:30:48;;;;;;;4.32;1.98;;;;;;;31.95;40.97;101736.19;4980704;28;20070;-78
2022/08/24 09:33:23;;;;;;;3.58;1.90;;;;;;;32.08;38.56;101730.50;5035640;28;20056;-79
2022/08/24 09:36:08;;;;;;;4.25;1.90;;;;;;;32.33;39.62;101732.13;5036775;28;20487;-79
2022/08/24 09:38:57;;;;;;;8.77;2.22;;;;;;;32.64;39.65;101735.53;5035357;28;20391;-79
2022/08/24 09:41:48;;;;;;;10.57;2.30;;;;;;;32.81;39.47;101735.63;5035085;28;20057;-78
2022/08/24 09:44:26;;;;;;;2.95;1.77;;;;;;;32.88;35.88;101740.97;5036931;28;20029;-79
2022/08/24 09:46:57;;;;;;;5.32;2.10;;;;;;;32.96;36.10;101732.34;5037002;28;20036;-80
2022/08/24 09:49:36;;;;;;;4.00;1.85;;;;;;;32.91;35.60;101733.06;5034520;28;20026;-78
2022/08/24 09:52:08;;;;;;;4.55;1.77;;;;;;;33.16;35.84;101729.97;5035740;28;20417;-80
2022/08/24 09:54:52;;;;;;;4.88;1.80;;;;;;;33.41;36.88;101736.16;5037595;28;20511;-79
2022/08/24 09:57:35;;;;;;;4.43;2.05;;;;;;;33.49;34.59;101733.00;5024925;28;20029;-78
2022/08/24 10:00:13;;;;;;;1.55;1.45;;;;;;;33.54;35.09;101730.31;5028537;28;20088;-78
2022/08/24 10:02:59;;;;;;;1.33;1.23;;;;;;;33.77;35.84;101731.28;5032481;28;20052;-79
2022/08/24 10:05:38;;;;;;;3.25;1.40;;;;;;;33.92;35.20;101731.50;5033048;28;20116;-79
2022/08/24 10:08:31;;;;;;;2.80;1.50;;;;;;;34.08;34.58;101725.13;5036243;28;20033;-79
2022/08/24 10:11:49;;;;;;;2.22;1.70;;;;;;;34.28;34.98;101730.09;5036042;28;20415;-79
2022/08/24 10:14:36;;;;;;;2.85;1.90;;;;;;;34.29;32.43;101726.25;5031280;28;20037;-78
2022/08/24 10:17:13;;;;;;;3.90;1.70;;;;;;;34.44;33.26;101719.25;5034736;28;20107;-77
2022/08/24 10:19:53;;;;;;;3.30;1.80;;;;;;;34.35;33.27;101716.13;5034435;28;20327;-78
2022/08/24 10:22:55;;;;;;;2.17;1.70;;;;;;;34.26;35.06;101717.69;5035716;28;20287;-78
2022/08/24 10:25:49;;;;;;;1.83;1.38;;;;;;;34.07;36.13;101711.59;5023980;28;20087;-78
2022/08/24 10:28:54;;;;;;;4.43;1.70;;;;;;;34.02;34.75;101708.75;5018397;28;20079;-79
2022/08/24 10:31:47;;;;;;;2.40;1.30;;;;;;;33.97;35.38;101705.94;5034458;28;20644;-78
2022/08/24 10:34:33;;;;;;;3.70;1.65;;;;;;;33.92;34.94;101710.28;5031535;28;20033;-78
2022/08/24 10:37:21;;;;;;;1.77;1.38;;;;;;;33.79;34.64;101705.16;5023824;28;20472;-78
2022/08/24 10:40:11;;;;;;;2.42;1.45;;;;;;;33.66;34.43;101706.28;5034661;28;20033;-78
2022/08/24 10:46:15;;;;;;;3.08;1.33;;;;;;;33.66;34.80;101706.28;5034937;28;20028;-80
2022/08/24 10:48:57;;;;;;;3.53;1.52;;;;;;;33.70;33.86;101701.97;5036478;28;20338;-78
2022/08/24 10:51:49;;;;;;;3.58;1.60;;;;;;;33.71;34.04;101706.41;5035173;28;20454;-78
2022/08/24 10:54:18;;;;;;;2.65;1.60;;;;;;;33.70;34.99;101698.38;5035440;28;20034;-78
2022/08/24 10:57:24;;;;;;;4.55;1.75;;;;;;;34.00;33.94;101706.25;5035333;28;20064;-79
2022/08/24 11:00:13;;;;;;;3.83;1.40;;;;;;;34.18;34.78;101694.09;5035156;28;20033;-79
2022/08/24 11:02:41;;;;;;;4.25;1.58;;;;;;;33.97;32.84;101692.97;5035393;28;20022;-80
2022/08/24 11:05:26;;;;;;;;;;;;;;;34.44;35.42;101698.03;5035978;28;20117;-80
2022/08/24 11:08:01;;;;;;;7.93;1.80;;;;;;;34.16;32.97;101695.44;5034231;28;19920;-80
2022/08/24 11:10:36;;;;;;;1.55;1.20;;;;;;;33.91;32.68;101694.00;5035000;28;20028;-78
2022/08/24 11:13:19;;;;;;;1.83;1.42;;;;;;;33.85;33.51;101693.09;5035154;28;20056;-79
2022/08/24 11:15:53;;;;;;;2.97;1.33;;;;;;;33.78;33.50;101691.63;5036322;28;20029;-79
2022/08/24 11:18:21;;;;;;;1.75;1.58;;;;;;;34.03;31.98;101689.22;5037256;28;20029;-79
2022/08/24 11:20:48;;;;;;;2.60;1.73;;;;;;;34.20;31.99;101691.91;5035291;28;20052;-79
2022/08/24 11:23:19;;;;;;;2.92;1.70;;;;;;;34.36;31.70;101679.19;5026272;28;20018;-77
2022/08/24 11:25:56;;;;;;;4.57;1.75;;;;;;;34.26;32.42;101681.81;5030893;28;20112;-77
2022/08/24 11:28:29;;;;;;;4.68;1.60;;;;;;;34.35;31.40;101682.19;5034828;28;20117;-78
2022/08/24 11:30:55;;;;;;;2.00;1.55;;;;;;;34.52;32.20;101685.69;5022153;28;20117;-78
2022/08/24 11:33:27;;;;;;;2.25;1.50;;;;;;;34.41;31.68;101679.25;5033719;28;20049;-77
2022/08/24 11:35:53;;;;;;;2.35;1.52;;;;;;;34.48;32.45;101674.34;5033520;28;20486;-79
2022/08/24 11:38:27;;;;;;;5.68;1.58;;;;;;;34.68;31.63;101678.44;5033695;28;20033;-78
2022/08/24 11:41:04;;;;;;;3.10;1.75;;;;;;;34.95;32.78;101680.38;5034290;28;20029;-78